Time;durP1;ratioP1;P1;durP2;ratioP2;P2;SDS_P1;SDS_P2;PMS_P1;PMS_P2;Temp;Humidity;BMP_temperature;BMP_pressure;BME280_temperature;BME280_humidity;BME280_pressure;Samples;Min_cycle;Max_cycle;Signal;HPM_P1;HPM_P2
2024/04/14 00:00:58;;;;;;;9.43;2.50;;;12.70;99.90;;;;;;5529145;25;20002;-82
2024/04/14 00:03:25;;;;;;;11.50;2.53;;;12.60;99.90;;;;;;5524583;25;20021;-82
2024/04/14 00:06:10;;;;;;;10.05;2.47;;;12.60;99.90;;;;;;5503476;26;20073;-81
2024/04/14 00:08:36;;;;;;;11.70;3.10;;;12.50;99.90;;;;;;5529510;25;20017;-82
2024/04/14 00:11:02;;;;;;;10.85;2.42;;;12.40;99.90;;;;;;5528692;25;20022;-81
2024/04/14 00:13:27;;;;;;;10.18;2.50;;;12.30;99.90;;;;;;5534238;25;20013;-82
2024/04/14 00:16:01;;;;;;;6.25;2.40;;;12.30;99.90;;;;;;5533073;25;20020;-82
2024/04/14 00:18:26;;;;;;;8.55;2.45;;;12.20;99.90;;;;;;5541021;25;20017;-81
2024/04/14 00:20:52;;;;;;;7.82;2.80;;;12.10;99.90;;;;;;5533648;25;20104;-81
2024/04/14 00:23:18;;;;;;;13.13;2.67;;;12.10;99.90;;;;;;5536420;25;20005;-81
2024/04/14 00:25:44;;;;;;;12.35;2.70;;;12.10;99.90;;;;;;5541401;25;20013;-82
2024/04/14 00:28:10;;;;;;;9.38;2.05;;;12.00;99.90;;;;;;5532201;25;20001;-81
2024/04/14 00:30:35;;;;;;;11.38;2.58;;;12.00;99.90;;;;;;5532436;25;20008;-83
2024/04/14 00:33:01;;;;;;;8.70;2.10;;;11.90;99.90;;;;;;5532021;25;20017;-81
2024/04/14 00:35:27;;;;;;;7.25;2.05;;;11.90;99.90;;;;;;5531923;25;20005;-83
2024/04/14 00:37:59;;;;;;;9.27;2.03;;;11.80;99.90;;;;;;5538461;25;20016;-81
2024/04/14 00:40:24;;;;;;;11.95;2.63;;;11.70;99.90;;;;;;5539866;25;20192;-81
2024/04/14 00:42:56;;;;;;;12.90;2.22;;;11.60;99.90;;;;;;5533270;25;20013;-83
2024/04/14 00:45:22;;;;;;;7.55;1.67;;;11.60;99.90;;;;;;5534966;25;20058;-82
2024/04/14 00:48:08;;;;;;;9.27;2.88;;;11.50;99.90;;;;;;5530702;25;20440;-81
2024/04/14 00:50:34;;;;;;;8.68;2.65;;;11.40;99.90;;;;;;5551557;25;20005;-81
2024/04/14 00:53:00;;;;;;;7.07;1.60;;;11.40;99.90;;;;;;5538883;25;20016;-82
2024/04/14 00:55:26;;;;;;;15.45;2.78;;;11.30;99.90;;;;;;5527966;26;20749;-81
2024/04/14 00:57:52;;;;;;;12.57;2.50;;;11.30;99.90;;;;;;5521077;26;20339;-81
2024/04/14 01:00:21;;;;;;;9.95;1.85;;;11.20;99.90;;;;;;5531173;25;20001;-82
2024/04/14 01:02:50;;;;;;;14.38;2.13;;;11.20;99.90;;;;;;5547513;25;20001;-82
2024/04/14 01:05:17;;;;;;;8.40;2.47;;;11.10;99.90;;;;;;5525503;25;20009;-82
2024/04/14 01:07:43;;;;;;;11.07;2.72;;;11.10;99.90;;;;;;5537574;25;20001;-82
2024/04/14 01:10:09;;;;;;;8.80;1.92;;;11.00;99.90;;;;;;5525503;25;20016;-82
2024/04/14 01:12:34;;;;;;;10.68;2.30;;;11.00;99.90;;;;;;5531149;25;20006;-82
2024/04/14 01:15:01;;;;;;;13.35;2.45;;;10.90;99.90;;;;;;5531923;25;20013;-82
2024/04/14 01:17:27;;;;;;;11.45;2.17;;;10.90;99.90;;;;;;5535879;25;20140;-81
2024/04/14 01:19:52;;;;;;;18.77;2.95;;;10.90;99.90;;;;;;5532552;25;20030;-82
2024/04/14 01:22:18;;;;;;;8.32;2.10;;;10.90;99.90;;;;;;5533718;25;20062;-81
2024/04/14 01:24:44;;;;;;;6.95;2.35;;;10.90;99.90;;;;;;5538905;25;20526;-82
2024/04/14 01:27:10;;;;;;;5.07;1.88;;;10.80;99.90;;;;;;5536055;25;20524;-81
2024/04/14 01:29:36;;;;;;;9.52;2.65;;;10.80;99.90;;;;;;5539366;25;20012;-81
2024/04/14 01:32:01;;;;;;;10.98;2.50;;;10.70;99.90;;;;;;5545180;25;20006;-81
2024/04/14 01:34:27;;;;;;;9.65;2.10;;;10.70;99.90;;;;;;5540832;25;20015;-82
2024/04/14 01:36:53;;;;;;;9.75;2.65;;;10.70;99.90;;;;;;5518862;25;20019;-81
2024/04/14 01:39:19;;;;;;;8.48;2.42;;;10.70;99.90;;;;;;5531018;25;20010;-82
2024/04/14 01:41:45;;;;;;;9.10;2.25;;;10.60;99.90;;;;;;5527365;25;20001;-81
2024/04/14 01:44:30;;;;;;;10.05;2.72;;;10.60;99.90;;;;;;5521393;25;20005;-82
2024/04/14 01:46:56;;;;;;;13.73;2.58;;;10.60;99.90;;;;;;5529514;26;20069;-83
2024/04/14 01:49:22;;;;;;;7.63;1.67;;;10.50;99.90;;;;;;5532828;25;20020;-82
2024/04/14 01:51:47;;;;;;;10.38;2.28;;;10.50;99.90;;;;;;5536529;25;20020;-82
2024/04/14 01:54:22;;;;;;;12.60;2.45;;;10.50;99.90;;;;;;5531507;25;20005;-82
2024/04/14 01:56:48;;;;;;;9.75;2.40;;;10.40;99.90;;;;;;5533451;25;20017;-82
2024/04/14 01:59:14;;;;;;;12.10;2.83;;;10.40;99.90;;;;;;5531970;25;20465;-82
2024/04/14 02:01:39;;;;;;;6.88;1.58;;;10.40;99.90;;;;;;5525239;25;20016;-81
2024/04/14 02:04:05;;;;;;;11.68;2.35;;;10.30;99.90;;;;;;5514906;26;20013;-82
2024/04/14 02:06:31;;;;;;;10.50;2.00;;;10.30;99.90;;;;;;5524387;26;20017;-82
2024/04/14 02:08:57;;;;;;;8.90;3.03;;;10.30;99.90;;;;;;5535678;25;20009;-82
2024/04/14 02:11:22;;;;;;;8.23;2.55;;;10.20;99.90;;;;;;5530610;25;20124;-81
2024/04/14 02:13:48;;;;;;;9.82;2.03;;;10.10;99.90;;;;;;5521940;26;20002;-81
2024/04/14 02:16:14;;;;;;;8.40;2.25;;;10.10;99.90;;;;;;5515232;26;20024;-81
2024/04/14 02:18:40;;;;;;;9.43;2.58;;;10.00;99.90;;;;;;5525634;25;20453;-81
2024/04/14 02:21:06;;;;;;;9.32;1.67;;;10.00;99.90;;;;;;5543730;25;20019;-82
2024/04/14 02:23:32;;;;;;;13.80;2.47;;;10.00;99.90;;;;;;5534331;25;20009;-82
2024/04/14 02:26:18;;;;;;;13.30;2.13;;;9.90;99.90;;;;;;5526271;25;20015;-82
2024/04/14 02:28:44;;;;;;;12.15;2.20;;;9.80;99.90;;;;;;5525919;25;20085;-82
2024/04/14 02:31:10;;;;;;;10.98;2.13;;;9.80;99.90;;;;;;5517311;25;20013;-83
2024/04/14 02:33:36;;;;;;;7.65;2.88;;;9.80;99.90;;;;;;5528319;25;20023;-82
2024/04/14 02:36:02;;;;;;;12.25;2.22;;;9.80;99.90;;;;;;5528839;25;20001;-82
2024/04/14 02:38:29;;;;;;;12.27;2.47;;;9.80;99.90;;;;;;5531369;25;20001;-81
2024/04/14 02:40:59;;;;;;;6.32;1.88;;;9.70;99.90;;;;;;5523001;25;20014;-83
2024/04/14 02:43:26;;;;;;;10.90;2.53;;;9.70;99.90;;;;;;5530280;25;20005;-82
2024/04/14 02:46:00;;;;;;;14.32;2.72;;;9.60;99.90;;;;;;5521464;26;20352;-81
2024/04/14 02:48:50;;;;;;;6.32;1.63;;;9.60;99.90;;;;;;5536506;25;20015;-81
2024/04/14 02:51:36;;;;;;;12.23;2.33;;;9.60;99.90;;;;;;5514731;26;20012;-81
2024/04/14 02:54:18;;;;;;;8.77;1.75;;;9.50;99.90;;;;;;5529432;25;20009;-82
2024/04/14 02:56:44;;;;;;;4.70;1.65;;;9.50;99.90;;;;;;5536582;25;20073;-82
2024/04/14 02:59:34;;;;;;;9.73;1.95;;;9.50;99.90;;;;;;5536468;25;20001;-81
2024/04/14 03:02:00;;;;;;;7.60;1.92;;;9.40;99.90;;;;;;5533501;25;20016;-82
2024/04/14 03:04:25;;;;;;;8.20;1.73;;;9.40;99.90;;;;;;5534952;25;20373;-82
2024/04/14 03:06:53;;;;;;;5.95;1.67;;;9.30;99.90;;;;;;5528582;25;20013;-83
2024/04/14 03:09:19;;;;;;;10.30;1.98;;;9.30;99.90;;;;;;5529278;25;20009;-81
2024/04/14 03:11:59;;;;;;;10.20;2.20;;;9.30;99.90;;;;;;5528305;26;20005;-81
2024/04/14 03:14:25;;;;;;;8.15;1.85;;;9.30;99.90;;;;;;5532591;25;20016;-83
2024/04/14 03:16:51;;;;;;;9.35;2.08;;;9.20;99.90;;;;;;5539549;25;20007;-82
2024/04/14 03:19:37;;;;;;;6.95;1.77;;;9.20;99.90;;;;;;5528174;25;20005;-82
2024/04/14 03:22:23;;;;;;;8.15;2.03;;;9.20;99.90;;;;;;5522788;26;20011;-81
2024/04/14 03:25:09;;;;;;;7.85;1.60;;;9.20;99.90;;;;;;5528660;25;20002;-81
2024/04/14 03:27:55;;;;;;;11.65;2.33;;;9.20;99.90;;;;;;5524204;26;20452;-83
2024/04/14 03:30:41;;;;;;;11.50;2.88;;;9.10;99.90;;;;;;5503639;25;20499;-81
2024/04/14 03:33:28;;;;;;;8.02;2.03;;;9.10;99.90;;;;;;5526192;25;20001;-82
2024/04/14 03:36:14;;;;;;;11.63;2.58;;;9.00;99.90;;;;;;5526487;25;20030;-81
2024/04/14 03:38:59;;;;;;;11.25;2.33;;;9.00;99.90;;;;;;5531936;25;20475;-82
2024/04/14 03:41:45;;;;;;;9.15;2.00;;;9.00;99.90;;;;;;5517615;25;20464;-82
2024/04/14 03:44:31;;;;;;;10.15;1.92;;;9.00;99.90;;;;;;5533925;25;20078;-82
2024/04/14 03:47:16;;;;;;;10.05;2.33;;;9.00;99.90;;;;;;5536470;25;20073;-83
2024/04/14 03:50:05;;;;;;;13.25;2.17;;;8.90;99.90;;;;;;5528046;25;19998;-81
2024/04/14 03:52:51;;;;;;;10.55;2.10;;;8.90;99.90;;;;;;5517221;26;20012;-81
2024/04/14 03:55:37;;;;;;;8.55;2.13;;;8.90;99.90;;;;;;5536715;25;20012;-82
2024/04/14 03:58:23;;;;;;;10.52;2.72;;;8.80;99.90;;;;;;5523747;25;20005;-81
2024/04/14 04:01:09;;;;;;;6.78;2.50;;;8.80;99.90;;;;;;5535609;25;20464;-82
2024/04/14 04:03:55;;;;;;;10.05;2.60;;;8.80;99.90;;;;;;5524283;25;20001;-82
2024/04/14 04:06:40;;;;;;;9.45;1.92;;;8.80;99.90;;;;;;5544089;25;20001;-81
2024/04/14 04:09:26;;;;;;;10.63;2.40;;;8.70;99.90;;;;;;5526477;25;20548;-81
2024/04/14 04:12:11;;;;;;;9.02;2.05;;;8.70;99.90;;;;;;5525201;26;20021;-82
2024/04/14 04:14:57;;;;;;;11.30;1.88;;;8.70;99.90;;;;;;5526234;26;19998;-82
2024/04/14 04:17:43;;;;;;;7.72;1.75;;;8.70;99.90;;;;;;5510815;25;19998;-81
2024/04/14 04:20:28;;;;;;;11.27;2.45;;;8.70;99.90;;;;;;5528229;25;20013;-81
2024/04/14 04:23:14;;;;;;;12.30;2.55;;;8.60;99.90;;;;;;5524888;25;20005;-81
2024/04/14 04:26:00;;;;;;;11.02;2.40;;;8.60;99.90;;;;;;5530474;25;19998;-82
2024/04/14 04:28:46;;;;;;;8.13;2.20;;;8.90;99.90;;;;;;5524410;25;20001;-82
2024/04/14 04:31:32;;;;;;;8.45;1.98;;;8.60;99.90;;;;;;5532602;25;20005;-81
2024/04/14 04:33:58;;;;;;;7.47;2.42;;;8.50;99.90;;;;;;5528990;25;20096;-82
2024/04/14 04:36:24;;;;;;;9.95;1.88;;;8.50;99.90;;;;;;5530835;25;20013;-83
2024/04/14 04:38:53;;;;;;;14.23;2.38;;;8.50;99.90;;;;;;5531529;25;20017;-81
2024/04/14 04:41:19;;;;;;;10.95;2.58;;;8.40;99.90;;;;;;5523178;26;20509;-81
2024/04/14 04:43:44;;;;;;;5.82;1.95;;;8.40;99.90;;;;;;5528769;25;20045;-82
2024/04/14 04:46:10;;;;;;;7.07;2.28;;;8.40;99.90;;;;;;5529911;25;20005;-83
2024/04/14 04:48:36;;;;;;;9.98;2.22;;;8.40;99.90;;;;;;5531897;25;20340;-83
2024/04/14 04:51:02;;;;;;;8.32;2.00;;;8.40;99.90;;;;;;5534532;25;20013;-82
2024/04/14 04:53:28;;;;;;;7.32;2.05;;;8.40;99.90;;;;;;5543059;25;20002;-82
2024/04/14 04:55:53;;;;;;;10.20;2.35;;;8.40;99.90;;;;;;5535728;25;20036;-81
2024/04/14 04:58:19;;;;;;;7.15;2.17;;;8.30;99.90;;;;;;5525033;25;20054;-81
2024/04/14 05:00:53;;;;;;;11.43;3.10;;;8.30;99.90;;;;;;5515774;25;20078;-84
2024/04/14 05:03:18;;;;;;;11.83;2.07;;;8.30;99.90;;;;;;5527514;25;20064;-82
2024/04/14 05:05:54;;;;;;;9.82;2.38;;;8.30;99.90;;;;;;5528766;25;20008;-81
2024/04/14 05:08:19;;;;;;;9.57;2.42;;;8.30;99.90;;;;;;5535972;25;20417;-82
2024/04/14 05:10:45;;;;;;;13.27;2.15;;;8.30;99.90;;;;;;5530484;25;20013;-82
2024/04/14 05:13:11;;;;;;;8.90;2.35;;;8.30;99.90;;;;;;5528586;26;20352;-82
2024/04/14 05:15:36;;;;;;;9.25;1.98;;;8.30;99.90;;;;;;5535979;25;20010;-81
2024/04/14 05:18:02;;;;;;;10.18;1.90;;;8.30;99.90;;;;;;5533124;25;20471;-82
2024/04/14 05:20:28;;;;;;;12.50;2.67;;;8.30;99.90;;;;;;5553634;25;20006;-82
2024/04/14 05:22:53;;;;;;;10.35;2.67;;;8.30;99.90;;;;;;5530634;25;20005;-83
2024/04/14 05:25:19;;;;;;;10.65;2.17;;;8.30;99.90;;;;;;5533414;25;20005;-83
2024/04/14 05:27:45;;;;;;;7.60;2.17;;;8.30;99.90;;;;;;5533710;25;20053;-83
2024/04/14 05:30:10;;;;;;;9.40;2.63;;;8.30;99.90;;;;;;5539363;25;20005;-82
2024/04/14 05:32:37;;;;;;;7.50;2.03;;;8.30;99.90;;;;;;5527467;26;20038;-82
2024/04/14 05:35:03;;;;;;;9.82;1.92;;;8.30;99.90;;;;;;5538466;25;20345;-82
2024/04/14 05:37:28;;;;;;;9.07;1.88;;;8.30;99.90;;;;;;5547592;25;20013;-82
2024/04/14 05:39:54;;;;;;;9.73;2.05;;;8.30;99.90;;;;;;5530375;25;20021;-82
2024/04/14 05:42:19;;;;;;;13.52;3.22;;;8.30;99.90;;;;;;5545165;25;20013;-83
2024/04/14 05:44:49;;;;;;;8.63;2.30;;;8.30;99.90;;;;;;5530858;25;20013;-82
2024/04/14 05:47:15;;;;;;;6.03;1.77;;;8.60;99.90;;;;;;5536440;25;20074;-82
2024/04/14 05:49:41;;;;;;;9.13;2.08;;;8.30;99.90;;;;;;5533820;25;20009;-81
2024/04/14 05:52:07;;;;;;;7.95;2.10;;;8.40;99.90;;;;;;5538146;25;20027;-81
2024/04/14 05:54:33;;;;;;;9.35;2.50;;;8.40;99.90;;;;;;5534112;25;20016;-82
2024/04/14 05:56:59;;;;;;;8.82;1.90;;;8.40;99.90;;;;;;5531349;25;20437;-83
2024/04/14 05:59:24;;;;;;;9.77;2.25;;;8.40;99.90;;;;;;5523780;26;20002;-83
2024/04/14 06:01:50;;;;;;;13.13;2.70;;;8.40;99.90;;;;;;5533768;25;20001;-81
2024/04/14 06:04:16;;;;;;;7.68;2.05;;;8.40;99.90;;;;;;5531295;25;20073;-81
2024/04/14 06:06:41;;;;;;;14.10;2.22;;;8.40;99.90;;;;;;5522277;26;20021;-81
2024/04/14 06:09:28;;;;;;;7.63;1.95;;;8.50;99.90;;;;;;5535056;25;20684;-82
2024/04/14 06:11:54;;;;;;;11.90;1.95;;;8.60;99.90;;;;;;5538558;25;20013;-82
2024/04/14 06:14:22;;;;;;;10.05;2.38;;;8.60;99.90;;;;;;5526735;26;20005;-81
2024/04/14 06:16:48;;;;;;;8.45;1.98;;;8.60;99.90;;;;;;5528162;25;20412;-82
2024/04/14 06:19:14;;;;;;;11.45;2.10;;;8.70;99.90;;;;;;5530013;25;20104;-81
2024/04/14 06:21:40;;;;;;;8.77;1.73;;;8.70;99.90;;;;;;5534856;25;20005;-81
2024/04/14 06:24:06;;;;;;;7.07;2.38;;;8.80;99.90;;;;;;5526948;25;20002;-82
2024/04/14 06:26:31;;;;;;;9.48;2.38;;;8.80;99.90;;;;;;5530294;25;20005;-81
2024/04/14 06:28:57;;;;;;;8.18;2.00;;;8.90;99.90;;;;;;5538501;25;20008;-81
2024/04/14 06:31:23;;;;;;;13.98;2.58;;;8.90;99.90;;;;;;5537165;25;20004;-81
2024/04/14 06:33:49;;;;;;;6.40;1.60;;;8.90;99.90;;;;;;5544877;25;20037;-82
2024/04/14 06:36:15;;;;;;;10.88;2.53;;;9.00;99.90;;;;;;5534063;25;20020;-81
2024/04/14 06:38:44;;;;;;;6.30;1.75;;;9.00;99.90;;;;;;5534442;25;20076;-81
2024/04/14 06:41:10;;;;;;;9.00;1.80;;;9.00;99.90;;;;;;5540886;25;20306;-82
2024/04/14 06:43:36;;;;;;;8.35;2.08;;;9.10;99.90;;;;;;5533275;25;20011;-82
2024/04/14 06:46:02;;;;;;;7.75;2.35;;;9.10;99.90;;;;;;5536780;25;20005;-81
2024/04/14 06:48:28;;;;;;;11.30;1.73;;;9.10;99.90;;;;;;5516098;25;20021;-86
2024/04/14 06:50:53;;;;;;;8.45;1.70;;;9.20;99.90;;;;;;5530688;25;20102;-81
2024/04/14 06:53:21;;;;;;;8.55;1.98;;;9.20;99.90;;;;;;5530130;25;20005;-81
2024/04/14 06:55:53;;;;;;;8.18;1.75;;;9.30;99.90;;;;;;5536594;25;20005;-82
2024/04/14 06:58:19;;;;;;;5.88;1.92;;;9.40;99.90;;;;;;5515163;25;20059;-82
2024/04/14 07:00:44;;;;;;;7.57;2.05;;;9.40;99.90;;;;;;5530391;26;20013;-81
2024/04/14 07:03:11;;;;;;;5.32;1.85;;;9.50;99.90;;;;;;5529462;26;20016;-83
2024/04/14 07:05:37;;;;;;;9.05;2.67;;;9.60;99.90;;;;;;5537142;25;20012;-81
2024/04/14 07:08:04;;;;;;;6.20;1.73;;;9.60;99.90;;;;;;5531205;25;20002;-81
2024/04/14 07:10:29;;;;;;;11.95;2.33;;;9.70;99.90;;;;;;5528118;25;20013;-82
2024/04/14 07:12:55;;;;;;;9.00;1.75;;;9.80;99.90;;;;;;5533285;25;20057;-82
2024/04/14 07:15:21;;;;;;;10.32;3.55;;;9.90;99.90;;;;;;5535367;25;20005;-82
2024/04/14 07:17:47;;;;;;;10.52;2.38;;;10.30;99.90;;;;;;5527579;25;20463;-81
2024/04/14 07:20:12;;;;;;;8.57;2.15;;;10.10;99.90;;;;;;5529021;25;20020;-80
2024/04/14 07:22:38;;;;;;;6.93;1.98;;;10.10;99.90;;;;;;5531902;25;19997;-81
2024/04/14 07:25:04;;;;;;;7.82;1.77;;;10.20;99.90;;;;;;5538687;25;20633;-81
2024/04/14 07:27:29;;;;;;;8.45;2.22;;;10.30;99.90;;;;;;5542884;25;20005;-81
2024/04/14 07:29:55;;;;;;;8.68;1.77;;;10.30;99.90;;;;;;5533997;25;20094;-82
2024/04/14 07:32:21;;;;;;;6.55;2.08;;;10.40;99.90;;;;;;5544216;25;20009;-82
2024/04/14 07:34:48;;;;;;;8.50;1.73;;;10.60;99.90;;;;;;5528191;25;20005;-81
2024/04/14 07:37:13;;;;;;;8.13;1.67;;;10.50;99.90;;;;;;5530219;25;20016;-82
2024/04/14 07:39:39;;;;;;;8.30;1.50;;;10.60;99.90;;;;;;5525730;25;20020;-81
2024/04/14 07:42:07;;;;;;;5.38;1.65;;;10.60;99.90;;;;;;5542053;25;20059;-82
2024/04/14 07:44:33;;;;;;;13.52;1.67;;;10.70;99.90;;;;;;5556616;25;20005;-81
2024/04/14 07:46:59;;;;;;;8.30;1.60;;;10.80;99.90;;;;;;5537704;25;20016;-82
2024/04/14 07:49:25;;;;;;;5.28;1.35;;;10.80;99.90;;;;;;5546578;25;20023;-83
2024/04/14 07:51:50;;;;;;;6.85;1.70;;;10.90;99.90;;;;;;5573222;25;20017;-82
2024/04/14 07:54:16;;;;;;;7.40;2.38;;;10.90;99.90;;;;;;5540546;25;20357;-82
2024/04/14 07:56:42;;;;;;;9.77;1.80;;;11.00;99.90;;;;;;5545349;25;20507;-82
2024/04/14 07:59:07;;;;;;;6.25;1.40;;;11.00;99.90;;;;;;5546085;25;20417;-83
2024/04/14 08:01:33;;;;;;;7.32;1.73;;;11.10;99.90;;;;;;5541385;25;20005;-82
2024/04/14 08:04:01;;;;;;;5.47;1.55;;;11.10;99.90;;;;;;5507852;26;20001;-82
2024/04/14 08:06:27;;;;;;;7.43;1.65;;;11.20;99.90;;;;;;5520184;25;20012;-83
2024/04/14 08:08:53;;;;;;;7.97;1.90;;;11.20;99.90;;;;;;5549020;25;20078;-83
2024/04/14 08:11:19;;;;;;;5.88;1.63;;;11.30;99.90;;;;;;5576199;25;20041;-84
2024/04/14 08:13:44;;;;;;;5.78;1.42;;;11.30;99.90;;;;;;5525842;25;20020;-82
2024/04/14 08:16:10;;;;;;;9.73;1.63;;;11.40;99.90;;;;;;5537992;25;20013;-82
2024/04/14 08:18:36;;;;;;;6.55;2.13;;;11.40;99.90;;;;;;5546882;25;20062;-84
2024/04/14 08:21:04;;;;;;;7.25;1.60;;;11.40;99.90;;;;;;5575512;25;20005;-83
2024/04/14 08:23:30;;;;;;;9.10;2.00;;;11.50;99.90;;;;;;5546589;25;20008;-83
2024/04/14 08:25:56;;;;;;;6.53;1.60;;;11.60;99.90;;;;;;5531256;25;20416;-81
2024/04/14 08:28:22;;;;;;;6.82;1.60;;;11.60;99.90;;;;;;5530575;25;20005;-82
2024/04/14 08:30:49;;;;;;;5.32;1.45;;;11.70;99.90;;;;;;5549795;25;20005;-84
2024/04/14 08:33:15;;;;;;;7.85;1.63;;;12.40;99.90;;;;;;5548749;25;20526;-82
2024/04/14 08:35:41;;;;;;;9.48;2.20;;;12.40;99.90;;;;;;5543023;25;20013;-84
2024/04/14 08:38:07;;;;;;;9.45;1.70;;;11.90;99.90;;;;;;5543772;25;20004;-82
2024/04/14 08:40:33;;;;;;;6.43;1.63;;;12.00;99.90;;;;;;5533951;25;20348;-81
2024/04/14 08:43:02;;;;;;;12.27;1.90;;;12.00;99.90;;;;;;5544617;25;20005;-83
2024/04/14 08:45:32;;;;;;;7.50;2.05;;;12.10;99.90;;;;;;5547948;25;20020;-83
2024/04/14 08:48:02;;;;;;;5.60;1.85;;;12.00;99.90;;;;;;5546215;25;19997;-82
2024/04/14 08:50:29;;;;;;;7.10;1.75;;;12.00;99.90;;;;;;5543762;25;20005;-80
2024/04/14 08:52:55;;;;;;;5.43;1.42;;;12.10;99.90;;;;;;5511627;26;20002;-84
2024/04/14 08:55:29;;;;;;;6.22;1.50;;;12.10;99.90;;;;;;5544164;25;20045;-83
2024/04/14 08:57:54;;;;;;;9.88;1.95;;;12.10;99.90;;;;;;5555174;25;20004;-81
2024/04/14 09:00:21;;;;;;;4.82;1.63;;;12.70;99.90;;;;;;5553572;25;20053;-81
2024/04/14 09:02:47;;;;;;;6.43;1.65;;;12.20;99.90;;;;;;5555143;25;20029;-83
2024/04/14 09:05:13;;;;;;;9.70;1.92;;;12.10;99.90;;;;;;5554175;25;20011;-82
2024/04/14 09:07:41;;;;;;;6.65;2.03;;;12.10;99.90;;;;;;5527468;25;20006;-82
2024/04/14 09:10:07;;;;;;;8.77;1.98;;;12.00;99.90;;;;;;5534035;25;20004;-81
2024/04/14 09:12:35;;;;;;;7.70;2.35;;;12.00;99.90;;;;;;5535799;25;20028;-81
2024/04/14 09:15:04;;;;;;;10.23;2.15;;;12.00;99.90;;;;;;5543261;25;20019;-83
2024/04/14 09:17:32;;;;;;;7.18;1.45;;;12.00;99.90;;;;;;5531325;25;20037;-83
2024/04/14 09:19:58;;;;;;;9.73;2.33;;;12.10;99.90;;;;;;5533814;25;20013;-82
2024/04/14 09:22:24;;;;;;;10.25;2.15;;;12.20;99.90;;;;;;5546026;25;20011;-83
2024/04/14 09:24:50;;;;;;;8.80;1.58;;;12.20;99.90;;;;;;5526335;26;20085;-83
2024/04/14 09:27:16;;;;;;;5.15;1.48;;;12.30;99.90;;;;;;5515553;25;20009;-83
2024/04/14 09:29:42;;;;;;;6.63;1.27;;;12.30;99.90;;;;;;5552398;25;20020;-82
2024/04/14 09:32:08;;;;;;;9.90;2.08;;;12.40;99.90;;;;;;5553856;25;20019;-81
2024/04/14 09:34:38;;;;;;;5.53;1.52;;;12.40;99.90;;;;;;5589676;25;20005;-82
2024/04/14 09:37:12;;;;;;;6.97;2.38;;;12.50;99.90;;;;;;5545237;25;20518;-84
2024/04/14 09:39:54;;;;;;;7.53;1.50;;;12.60;99.90;;;;;;5541825;25;20010;-83
2024/04/14 09:42:20;;;;;;;6.03;1.42;;;12.70;99.90;;;;;;5534104;25;20005;-83
2024/04/14 09:44:49;;;;;;;8.40;1.67;;;12.70;99.90;;;;;;5527971;25;20349;-81
2024/04/14 09:47:17;;;;;;;8.88;2.55;;;12.70;99.90;;;;;;5546979;25;20079;-83
2024/04/14 09:49:46;;;;;;;7.82;2.30;;;12.80;99.90;;;;;;5536201;25;20634;-81
2024/04/14 09:52:15;;;;;;;7.00;1.20;;;12.70;99.90;;;;;;5545262;25;20024;-82
2024/04/14 09:54:43;;;;;;;8.20;1.85;;;12.70;99.90;;;;;;5554328;25;20556;-85
2024/04/14 09:57:09;;;;;;;5.80;1.30;;;12.80;99.90;;;;;;5530126;25;20006;-83
2024/04/14 09:59:36;;;;;;;6.15;1.60;;;13.70;99.90;;;;;;5547290;25;20020;-84
2024/04/14 10:02:13;;;;;;;6.40;1.50;;;12.80;99.90;;;;;;5516876;26;20077;-82
2024/04/14 10:04:45;;;;;;;6.60;1.58;;;12.80;99.90;;;;;;5546060;25;20095;-81
2024/04/14 10:07:12;;;;;;;8.63;1.73;;;12.80;99.90;;;;;;5527750;26;20019;-81
2024/04/14 10:09:38;;;;;;;7.47;1.50;;;12.90;99.90;;;;;;5530541;25;20001;-85
2024/04/14 10:12:06;;;;;;;9.05;1.48;;;12.90;99.90;;;;;;5538250;25;20020;-80
2024/04/14 10:14:45;;;;;;;8.07;1.70;;;13.00;99.90;;;;;;5544789;25;20661;-82
2024/04/14 10:17:15;;;;;;;6.82;1.63;;;13.10;99.90;;;;;;5546074;25;20005;-82
2024/04/14 10:20:12;;;;;;;6.00;1.40;;;13.20;99.90;;;;;;5552986;25;20053;-82
2024/04/14 10:22:40;;;;;;;6.55;1.73;;;13.20;99.90;;;;;;5547614;25;20050;-81
2024/04/14 10:25:19;;;;;;;4.10;1.20;;;13.30;99.90;;;;;;5532965;25;20012;-85
2024/04/14 10:27:45;;;;;;;4.88;1.40;;;13.30;99.90;;;;;;5525223;25;20028;-83
2024/04/14 10:30:18;;;;;;;5.65;1.60;;;13.40;99.90;;;;;;5586379;25;20005;-81
2024/04/14 10:32:45;;;;;;;7.17;1.93;;;13.70;99.90;;;;;;5528061;25;20771;-79
2024/04/14 10:35:17;;;;;;;7.00;1.77;;;13.40;99.90;;;;;;5556770;25;20225;-82
2024/04/14 10:38:03;;;;;;;14.88;1.95;;;13.40;99.90;;;;;;5511969;26;20053;-82
2024/04/14 10:40:29;;;;;;;8.43;2.07;;;13.40;99.90;;;;;;5529735;26;20021;-83
2024/04/14 10:42:55;;;;;;;7.13;2.55;;;13.30;99.90;;;;;;5515275;25;20002;-82
2024/04/14 10:45:28;;;;;;;7.80;1.45;;;13.20;99.90;;;;;;5540351;25;20016;-82
2024/04/14 10:47:57;;;;;;;8.20;1.23;;;13.20;99.90;;;;;;5526942;25;20020;-83
2024/04/14 10:50:25;;;;;;;8.35;1.55;;;13.10;99.90;;;;;;5528103;25;20045;-83
2024/04/14 10:52:51;;;;;;;8.45;1.55;;;13.10;99.90;;;;;;5528008;26;20020;-79
2024/04/14 10:55:17;;;;;;;8.75;1.90;;;13.20;99.90;;;;;;5523469;26;20005;-84
2024/04/14 10:57:42;;;;;;;6.55;1.20;;;13.20;99.90;;;;;;5537035;25;20005;-81
2024/04/14 11:00:08;;;;;;;11.40;2.83;;;13.20;99.90;;;;;;5524593;25;20005;-81
2024/04/14 11:02:34;;;;;;;7.47;1.70;;;13.20;99.90;;;;;;5511638;26;20013;-83
2024/04/14 11:05:01;;;;;;;9.52;2.10;;;13.60;99.90;;;;;;5528258;25;20336;-81
2024/04/14 11:07:27;;;;;;;9.77;1.85;;;13.30;99.90;;;;;;5532802;25;20783;-82
2024/04/14 11:09:53;;;;;;;7.75;2.13;;;13.80;99.90;;;;;;5531566;25;20037;-82
2024/04/14 11:12:19;;;;;;;6.20;1.63;;;13.30;99.90;;;;;;5525271;25;20001;-83
2024/04/14 11:14:45;;;;;;;6.88;1.80;;;13.20;99.90;;;;;;5534459;25;20005;-80
2024/04/14 11:17:12;;;;;;;8.80;1.77;;;13.20;99.90;;;;;;5533051;25;20066;-81
2024/04/14 11:19:37;;;;;;;5.85;1.20;;;13.20;99.90;;;;;;5525541;26;20021;-80
2024/04/14 11:22:03;;;;;;;6.28;1.60;;;13.30;99.90;;;;;;5526296;25;20408;-80
2024/04/14 11:24:32;;;;;;;8.30;1.73;;;13.40;99.90;;;;;;5527796;25;20009;-83
2024/04/14 11:26:58;;;;;;;8.18;2.08;;;13.60;99.90;;;;;;5530618;25;20159;-82
2024/04/14 11:29:23;;;;;;;9.77;2.40;;;13.70;99.90;;;;;;5529719;25;20040;-81
2024/04/14 11:31:56;;;;;;;6.13;1.73;;;13.80;99.90;;;;;;5521995;25;20012;-80
2024/04/14 11:34:22;;;;;;;6.65;1.50;;;13.90;99.90;;;;;;5527113;25;19998;-81
2024/04/14 11:36:47;;;;;;;5.47;1.25;;;13.90;99.90;;;;;;5530421;25;20020;-81
2024/04/14 11:39:14;;;;;;;6.70;1.38;;;13.90;99.90;;;;;;5532453;25;20058;-85
2024/04/14 11:41:54;;;;;;;6.03;1.45;;;13.90;99.90;;;;;;5474450;25;20945;-83
2024/04/14 11:44:21;;;;;;;6.47;1.58;;;13.80;99.90;;;;;;5437298;26;20039;-84
2024/04/14 11:46:47;;;;;;;4.80;1.30;;;13.80;99.90;;;;;;5430594;26;20008;-82
2024/04/14 11:49:13;;;;;;;7.50;2.20;;;13.70;99.90;;;;;;5401864;26;20016;-84
2024/04/14 11:51:39;;;;;;;6.10;2.03;;;13.80;99.90;;;;;;5430245;26;20576;-83
2024/04/14 11:54:04;;;;;;;5.18;1.40;;;13.90;99.90;;;;;;5426444;26;20014;-82
2024/04/14 11:56:30;;;;;;;7.10;1.77;;;14.00;99.90;;;;;;5407330;26;20008;-82
2024/04/14 11:58:57;;;;;;;5.00;1.40;;;13.90;99.90;;;;;;5428671;26;20015;-84
2024/04/14 12:01:24;;;;;;;6.05;1.50;;;14.00;99.90;;;;;;5394009;26;20007;-83
2024/04/14 12:03:50;;;;;;;7.35;2.17;;;13.90;99.90;;;;;;5404977;26;20019;-85
2024/04/14 12:06:15;;;;;;;7.53;2.20;;;13.80;99.90;;;;;;5423956;26;20019;-82
2024/04/14 12:08:41;;;;;;;7.20;2.17;;;13.80;99.90;;;;;;5419327;26;20008;-83
2024/04/14 12:11:08;;;;;;;7.53;1.80;;;13.70;99.90;;;;;;5415468;26;20008;-81
2024/04/14 12:13:34;;;;;;;9.15;1.88;;;13.60;99.90;;;;;;5424175;26;20473;-83
2024/04/14 12:16:00;;;;;;;7.68;2.03;;;13.60;99.90;;;;;;5424698;26;20091;-85
2024/04/14 12:18:26;;;;;;;4.88;1.75;;;13.60;99.90;;;;;;5423284;26;20015;-86
2024/04/14 12:20:51;;;;;;;7.47;1.63;;;14.50;99.90;;;;;;5417390;26;20008;-84
2024/04/14 12:23:17;;;;;;;7.85;1.85;;;14.00;99.90;;;;;;5416069;26;20007;-81
2024/04/14 12:25:43;;;;;;;5.88;1.98;;;13.80;99.90;;;;;;5404517;26;20038;-83
2024/04/14 12:28:08;;;;;;;7.00;1.88;;;13.70;99.90;;;;;;5415567;26;20007;-82
2024/04/14 12:30:36;;;;;;;10.05;2.45;;;13.70;99.90;;;;;;5420632;26;20008;-84
2024/04/14 12:33:06;;;;;;;9.13;1.60;;;13.70;99.90;;;;;;5428539;26;20008;-85
2024/04/14 12:35:31;;;;;;;4.45;1.63;;;13.80;99.90;;;;;;5373851;26;20016;-83
2024/04/14 12:37:57;;;;;;;5.40;1.38;;;13.80;99.90;;;;;;5412610;26;20038;-81
2024/04/14 12:40:23;;;;;;;6.78;1.50;;;13.80;99.90;;;;;;5423450;26;20010;-83
2024/04/14 12:42:48;;;;;;;6.32;1.58;;;13.90;99.90;;;;;;5415101;26;20082;-82
2024/04/14 12:45:15;;;;;;;8.50;1.83;;;14.70;99.90;;;;;;5401476;26;20505;-83
2024/04/14 12:47:42;;;;;;;7.50;1.30;;;14.00;99.90;;;;;;5420598;26;20016;-85
2024/04/14 12:50:08;;;;;;;6.03;1.75;;;14.00;99.90;;;;;;5420759;26;20007;-82
2024/04/14 12:52:34;;;;;;;6.22;1.38;;;14.00;99.90;;;;;;5393894;26;20005;-83
2024/04/14 12:55:00;;;;;;;9.00;1.80;;;13.90;99.90;;;;;;5395949;26;20409;-82
2024/04/14 12:57:26;;;;;;;6.10;1.42;;;13.80;99.90;;;;;;5402378;26;20004;-84